SILO ALERT LOG


Silo ID Alert Type Alert Message Silo Type Points Depth (mm) Strength Temperature (°C) Humidity (%) Height (mm) Volume (㎥) Weight (t) Flag Time
WJWJR01 Humidity 습도센서 측정값이 80% 초과 50 6743 1878 19.9 87.4 896 101.369 64.086 0 2026-05-30 02:25:51.000
WJWJR05 Humidity 습도센서 측정값이 80% 초과 81 5774 2250 22.7 82.5 1955 221.159 139.817 0 2026-05-30 01:25:58.000
WJWJR01 Humidity 습도센서 측정값이 80% 초과 49 6882 1859 20.5 86.3 757 85.649 54.147 0 2026-05-30 01:25:47.000
WJWJR05 Humidity 습도센서 측정값이 80% 초과 76 5885 2267 23.3 81.5 1844 208.585 131.867 0 2026-05-30 00:25:56.000
WJWJR01 Humidity 습도센서 측정값이 80% 초과 49 6741 1821 21.2 84.9 898 101.652 64.265 0 2026-05-30 00:25:48.000
WJWJR05 Humidity 습도센서 측정값이 80% 초과 78 5686 2267 23.9 80.6 2043 231.17 146.146 0 2026-05-29 23:26:00.000
WJWJR01 Humidity 습도센서 측정값이 80% 초과 50 6773 1849 21.9 83.3 866 98.033 61.977 0 2026-05-29 23:25:49.000
WJWJR01 Humidity 습도센서 측정값이 80% 초과 47 6833 1865 22.8 81 806 91.23 57.675 0 2026-05-29 22:25:52.000
WJWJR05 Humidity 습도센서 측정값이 80% 초과 68 7613 2031 19.7 81.2 116 13.158 8.319 0 2026-05-29 08:26:10.000
WJWJR01 Humidity 습도센서 측정값이 80% 초과 74 7039 1291 21.8 87.7 600 67.915 42.936 0 2026-05-29 08:26:08.000
WJWJR01 Humidity 습도센서 측정값이 80% 초과 74 7037 1288 21.4 88.6 602 68.195 43.113 0 2026-05-29 07:26:09.000
WJWJR01 Humidity 습도센서 측정값이 80% 초과 75 7036 1285 21.4 88.5 603 68.269 43.16 0 2026-05-29 06:26:05.000
WJWJR01 Humidity 습도센서 측정값이 80% 초과 76 7036 1269 21.7 88.2 603 68.209 43.122 0 2026-05-29 05:26:10.000
WJWJR01 Humidity 습도센서 측정값이 80% 초과 74 7033 1287 21.8 88 606 68.551 43.338 0 2026-05-29 04:26:05.000
WJWJR01 Humidity 습도센서 측정값이 80% 초과 76 7036 1282 22.1 87.6 603 68.233 43.137 0 2026-05-29 03:26:08.000
WJWJR01 Humidity 습도센서 측정값이 80% 초과 75 7035 1282 22.4 87.2 604 68.344 43.207 0 2026-05-29 02:26:11.000
WJWJR01 Humidity 습도센서 측정값이 80% 초과 75 7036 1276 22.6 86.8 603 68.203 43.118 0 2026-05-29 01:26:07.000
WJWJR01 Humidity 습도센서 측정값이 80% 초과 73 7034 1295 22.9 86.2 605 68.52 43.318 0 2026-05-29 00:26:07.000
WJWJR01 Humidity 습도센서 측정값이 80% 초과 74 7037 1303 23.3 85 602 68.103 43.055 0 2026-05-28 23:26:08.000
WJWJR01 Humidity 습도센서 측정값이 80% 초과 74 7037 1274 24 83.3 602 68.185 43.106 0 2026-05-28 22:26:05.000

[첫 페이지] [57] [58] [59] [60] 61 [62] [63] [64] [65] [마지막 페이지]